sensor_id;sensor_type;location;lat;lon;timestamp;temperature;humidity
23499;DHT22;11926;48.120;11.562;2023-09-19T00:02:46;17.10;97.80
23499;DHT22;11926;48.120;11.562;2023-09-19T00:05:35;17.20;97.70
23499;DHT22;11926;48.120;11.562;2023-09-19T00:08:24;17.20;97.50
23499;DHT22;11926;48.120;11.562;2023-09-19T00:11:11;17.20;97.50
23499;DHT22;11926;48.120;11.562;2023-09-19T00:14:00;17.20;97.40
23499;DHT22;11926;48.120;11.562;2023-09-19T00:16:47;17.20;97.20
23499;DHT22;11926;48.120;11.562;2023-09-19T00:19:37;17.20;97.10
23499;DHT22;11926;48.120;11.562;2023-09-19T00:22:24;17.30;97.10
23499;DHT22;11926;48.120;11.562;2023-09-19T00:25:12;17.30;97.10
23499;DHT22;11926;48.120;11.562;2023-09-19T00:28:01;17.30;97.00
23499;DHT22;11926;48.120;11.562;2023-09-19T00:30:49;17.30;96.90
23499;DHT22;11926;48.120;11.562;2023-09-19T00:33:37;17.30;96.90
23499;DHT22;11926;48.120;11.562;2023-09-19T00:36:26;17.30;96.90
23499;DHT22;11926;48.120;11.562;2023-09-19T00:39:15;17.30;96.90
23499;DHT22;11926;48.120;11.562;2023-09-19T00:42:03;17.30;97.00
23499;DHT22;11926;48.120;11.562;2023-09-19T00:44:51;17.30;97.20
23499;DHT22;11926;48.120;11.562;2023-09-19T00:47:38;17.30;97.50
23499;DHT22;11926;48.120;11.562;2023-09-19T00:50:27;17.30;97.30
23499;DHT22;11926;48.120;11.562;2023-09-19T00:53:21;17.30;97.50
23499;DHT22;11926;48.120;11.562;2023-09-19T00:56:08;17.20;97.50
23499;DHT22;11926;48.120;11.562;2023-09-19T00:58:57;17.30;97.90
23499;DHT22;11926;48.120;11.562;2023-09-19T01:01:46;17.20;97.80
23499;DHT22;11926;48.120;11.562;2023-09-19T01:04:38;17.20;98.20
23499;DHT22;11926;48.120;11.562;2023-09-19T01:07:26;17.10;98.30
23499;DHT22;11926;48.120;11.562;2023-09-19T01:10:19;17.10;98.50
23499;DHT22;11926;48.120;11.562;2023-09-19T01:13:11;17.10;98.50
23499;DHT22;11926;48.120;11.562;2023-09-19T01:16:09;17.10;99.00
23499;DHT22;11926;48.120;11.562;2023-09-19T01:19:14;17.10;98.50
23499;DHT22;11926;48.120;11.562;2023-09-19T01:22:13;17.10;98.40
23499;DHT22;11926;48.120;11.562;2023-09-19T01:25:36;17.10;98.20
23499;DHT22;11926;48.120;11.562;2023-09-19T01:28:32;17.10;98.40
23499;DHT22;11926;48.120;11.562;2023-09-19T01:31:29;17.10;98.30
23499;DHT22;11926;48.120;11.562;2023-09-19T01:34:20;17.10;98.30
23499;DHT22;11926;48.120;11.562;2023-09-19T01:37:06;17.20;98.20
23499;DHT22;11926;48.120;11.562;2023-09-19T01:39:56;17.20;98.10
23499;DHT22;11926;48.120;11.562;2023-09-19T01:42:52;17.20;97.90
23499;DHT22;11926;48.120;11.562;2023-09-19T01:45:49;17.20;97.80
23499;DHT22;11926;48.120;11.562;2023-09-19T01:48:42;17.20;97.50
23499;DHT22;11926;48.120;11.562;2023-09-19T01:51:37;17.20;97.50
23499;DHT22;11926;48.120;11.562;2023-09-19T01:54:31;17.20;97.40
23499;DHT22;11926;48.120;11.562;2023-09-19T01:57:27;17.30;97.20
23499;DHT22;11926;48.120;11.562;2023-09-19T02:00:18;17.30;97.00
23499;DHT22;11926;48.120;11.562;2023-09-19T02:03:09;17.30;97.30
23499;DHT22;11926;48.120;11.562;2023-09-19T02:05:59;17.30;96.80
23499;DHT22;11926;48.120;11.562;2023-09-19T02:08:47;17.30;96.70
23499;DHT22;11926;48.120;11.562;2023-09-19T02:11:35;17.30;96.60
23499;DHT22;11926;48.120;11.562;2023-09-19T02:14:22;17.30;96.50
23499;DHT22;11926;48.120;11.562;2023-09-19T02:17:10;17.40;96.40
23499;DHT22;11926;48.120;11.562;2023-09-19T02:19:58;17.30;96.30
23499;DHT22;11926;48.120;11.562;2023-09-19T02:22:48;17.30;96.30
23499;DHT22;11926;48.120;11.562;2023-09-19T02:25:37;17.30;96.30
23499;DHT22;11926;48.120;11.562;2023-09-19T02:28:26;17.30;96.20
23499;DHT22;11926;48.120;11.562;2023-09-19T02:31:16;17.20;96.10
23499;DHT22;11926;48.120;11.562;2023-09-19T02:34:05;17.20;96.60
23499;DHT22;11926;48.120;11.562;2023-09-19T02:36:55;17.20;96.30
23499;DHT22;11926;48.120;11.562;2023-09-19T02:39:44;17.20;96.30
23499;DHT22;11926;48.120;11.562;2023-09-19T02:42:31;17.20;96.30
23499;DHT22;11926;48.120;11.562;2023-09-19T02:45:19;17.10;96.20
23499;DHT22;11926;48.120;11.562;2023-09-19T02:48:06;17.10;96.30
23499;DHT22;11926;48.120;11.562;2023-09-19T02:50:54;17.10;96.40
23499;DHT22;11926;48.120;11.562;2023-09-19T02:53:41;17.10;96.40
23499;DHT22;11926;48.120;11.562;2023-09-19T02:56:31;17.10;96.40
23499;DHT22;11926;48.120;11.562;2023-09-19T02:59:18;17.00;96.50
23499;DHT22;11926;48.120;11.562;2023-09-19T03:02:06;17.00;96.50
23499;DHT22;11926;48.120;11.562;2023-09-19T03:04:54;17.00;96.50
23499;DHT22;11926;48.120;11.562;2023-09-19T03:07:43;16.90;96.50
23499;DHT22;11926;48.120;11.562;2023-09-19T03:10:32;16.90;96.50
23499;DHT22;11926;48.120;11.562;2023-09-19T03:13:21;16.90;96.50
23499;DHT22;11926;48.120;11.562;2023-09-19T03:16:09;16.90;96.60
23499;DHT22;11926;48.120;11.562;2023-09-19T03:18:57;16.90;96.50
23499;DHT22;11926;48.120;11.562;2023-09-19T03:21:48;16.90;96.50
23499;DHT22;11926;48.120;11.562;2023-09-19T03:24:36;16.90;96.60
23499;DHT22;11926;48.120;11.562;2023-09-19T03:27:24;16.80;96.60
23499;DHT22;11926;48.120;11.562;2023-09-19T03:30:13;16.80;96.60
23499;DHT22;11926;48.120;11.562;2023-09-19T03:33:01;16.80;96.50
23499;DHT22;11926;48.120;11.562;2023-09-19T03:35:52;16.80;96.50
23499;DHT22;11926;48.120;11.562;2023-09-19T03:38:40;16.80;96.50
23499;DHT22;11926;48.120;11.562;2023-09-19T03:41:27;16.70;96.50
23499;DHT22;11926;48.120;11.562;2023-09-19T03:44:15;16.70;96.50
23499;DHT22;11926;48.120;11.562;2023-09-19T03:47:04;16.70;96.90
23499;DHT22;11926;48.120;11.562;2023-09-19T03:49:53;16.70;96.50
23499;DHT22;11926;48.120;11.562;2023-09-19T03:52:40;16.70;96.50
23499;DHT22;11926;48.120;11.562;2023-09-19T03:55:28;16.70;96.50
23499;DHT22;11926;48.120;11.562;2023-09-19T03:58:16;16.80;96.50
23499;DHT22;11926;48.120;11.562;2023-09-19T04:01:03;16.80;96.50
23499;DHT22;11926;48.120;11.562;2023-09-19T04:03:54;16.80;96.50
23499;DHT22;11926;48.120;11.562;2023-09-19T04:06:41;16.80;96.50
23499;DHT22;11926;48.120;11.562;2023-09-19T04:09:28;16.80;96.40
23499;DHT22;11926;48.120;11.562;2023-09-19T04:12:16;16.80;96.50
23499;DHT22;11926;48.120;11.562;2023-09-19T04:15:04;16.80;96.50
23499;DHT22;11926;48.120;11.562;2023-09-19T04:17:52;16.80;96.50
23499;DHT22;11926;48.120;11.562;2023-09-19T04:20:41;16.80;96.40
23499;DHT22;11926;48.120;11.562;2023-09-19T04:23:28;16.90;96.40
23499;DHT22;11926;48.120;11.562;2023-09-19T04:26:16;16.90;96.30
23499;DHT22;11926;48.120;11.562;2023-09-19T04:29:03;16.90;96.20
23499;DHT22;11926;48.120;11.562;2023-09-19T04:31:52;16.90;96.10
23499;DHT22;11926;48.120;11.562;2023-09-19T04:34:39;16.90;96.00
23499;DHT22;11926;48.120;11.562;2023-09-19T04:37:28;16.90;96.00
23499;DHT22;11926;48.120;11.562;2023-09-19T04:40:15;16.90;95.90
23499;DHT22;11926;48.120;11.562;2023-09-19T04:43:04;16.90;95.80
23499;DHT22;11926;48.120;11.562;2023-09-19T04:45:52;16.90;95.70
23499;DHT22;11926;48.120;11.562;2023-09-19T04:48:41;16.90;95.70
23499;DHT22;11926;48.120;11.562;2023-09-19T04:51:28;16.90;95.70
23499;DHT22;11926;48.120;11.562;2023-09-19T04:54:21;16.90;95.60
23499;DHT22;11926;48.120;11.562;2023-09-19T04:57:08;16.90;95.60
23499;DHT22;11926;48.120;11.562;2023-09-19T04:59:55;16.90;95.60
23499;DHT22;11926;48.120;11.562;2023-09-19T05:02:44;16.90;95.60
23499;DHT22;11926;48.120;11.562;2023-09-19T05:05:33;16.90;95.60
23499;DHT22;11926;48.120;11.562;2023-09-19T05:08:21;16.90;95.60
23499;DHT22;11926;48.120;11.562;2023-09-19T05:11:10;16.90;95.50
23499;DHT22;11926;48.120;11.562;2023-09-19T05:13:57;16.90;95.40
23499;DHT22;11926;48.120;11.562;2023-09-19T05:16:47;16.90;95.40
23499;DHT22;11926;48.120;11.562;2023-09-19T05:19:34;16.90;95.30
23499;DHT22;11926;48.120;11.562;2023-09-19T05:22:23;17.00;95.30
23499;DHT22;11926;48.120;11.562;2023-09-19T05:25:10;17.00;95.30
23499;DHT22;11926;48.120;11.562;2023-09-19T05:28:04;17.00;95.30
23499;DHT22;11926;48.120;11.562;2023-09-19T05:30:52;17.00;95.30
23499;DHT22;11926;48.120;11.562;2023-09-19T05:33:39;17.10;95.30
23499;DHT22;11926;48.120;11.562;2023-09-19T05:36:26;17.10;95.30
23499;DHT22;11926;48.120;11.562;2023-09-19T05:39:15;17.10;95.10
23499;DHT22;11926;48.120;11.562;2023-09-19T05:42:04;17.10;95.10
23499;DHT22;11926;48.120;11.562;2023-09-19T05:44:52;17.10;95.10
23499;DHT22;11926;48.120;11.562;2023-09-19T05:47:41;17.10;95.00
23499;DHT22;11926;48.120;11.562;2023-09-19T05:50:31;17.10;95.10
23499;DHT22;11926;48.120;11.562;2023-09-19T05:53:19;17.00;94.90
23499;DHT22;11926;48.120;11.562;2023-09-19T05:56:06;17.00;94.90
23499;DHT22;11926;48.120;11.562;2023-09-19T05:58:56;17.00;94.90
23499;DHT22;11926;48.120;11.562;2023-09-19T06:01:46;17.00;95.00
23499;DHT22;11926;48.120;11.562;2023-09-19T06:04:33;17.00;95.20
23499;DHT22;11926;48.120;11.562;2023-09-19T06:07:20;17.10;95.20
23499;DHT22;11926;48.120;11.562;2023-09-19T06:10:09;17.20;95.10
23499;DHT22;11926;48.120;11.562;2023-09-19T06:12:57;17.30;95.20
23499;DHT22;11926;48.120;11.562;2023-09-19T06:15:44;17.40;95.10
23499;DHT22;11926;48.120;11.562;2023-09-19T06:18:34;17.50;95.00
23499;DHT22;11926;48.120;11.562;2023-09-19T06:21:22;17.60;94.80
23499;DHT22;11926;48.120;11.562;2023-09-19T06:24:09;17.60;94.70
23499;DHT22;11926;48.120;11.562;2023-09-19T06:26:57;17.70;94.60
23499;DHT22;11926;48.120;11.562;2023-09-19T06:29:47;17.80;94.40
23499;DHT22;11926;48.120;11.562;2023-09-19T06:32:34;17.80;94.20
23499;DHT22;11926;48.120;11.562;2023-09-19T06:35:23;17.90;94.20
23499;DHT22;11926;48.120;11.562;2023-09-19T06:38:12;18.00;94.00
23499;DHT22;11926;48.120;11.562;2023-09-19T06:41:01;18.00;93.90
23499;DHT22;11926;48.120;11.562;2023-09-19T06:43:51;18.00;93.60
23499;DHT22;11926;48.120;11.562;2023-09-19T06:46:39;18.10;93.60
23499;DHT22;11926;48.120;11.562;2023-09-19T06:49:27;18.10;93.50
23499;DHT22;11926;48.120;11.562;2023-09-19T06:52:16;18.10;93.50
23499;DHT22;11926;48.120;11.562;2023-09-19T06:55:08;18.10;93.20
23499;DHT22;11926;48.120;11.562;2023-09-19T06:57:59;18.10;93.20
23499;DHT22;11926;48.120;11.562;2023-09-19T07:00:46;18.10;93.40
23499;DHT22;11926;48.120;11.562;2023-09-19T07:03:36;18.20;93.40
23499;DHT22;11926;48.120;11.562;2023-09-19T07:06:23;18.40;93.50
23499;DHT22;11926;48.120;11.562;2023-09-19T07:09:12;18.50;93.30
23499;DHT22;11926;48.120;11.562;2023-09-19T07:11:59;18.60;93.00
23499;DHT22;11926;48.120;11.562;2023-09-19T07:14:51;18.60;92.70
23499;DHT22;11926;48.120;11.562;2023-09-19T07:17:38;18.60;92.50
23499;DHT22;11926;48.120;11.562;2023-09-19T07:20:26;18.70;92.60
23499;DHT22;11926;48.120;11.562;2023-09-19T07:23:21;18.70;92.50
23499;DHT22;11926;48.120;11.562;2023-09-19T07:26:10;18.70;92.40
23499;DHT22;11926;48.120;11.562;2023-09-19T07:28:57;18.80;92.40
23499;DHT22;11926;48.120;11.562;2023-09-19T07:31:45;18.80;92.20
23499;DHT22;11926;48.120;11.562;2023-09-19T07:34:33;18.90;92.20
23499;DHT22;11926;48.120;11.562;2023-09-19T07:37:21;18.90;92.20
23499;DHT22;11926;48.120;11.562;2023-09-19T07:40:11;19.00;92.30
23499;DHT22;11926;48.120;11.562;2023-09-19T07:43:00;19.20;91.90
23499;DHT22;11926;48.120;11.562;2023-09-19T07:45:47;19.30;91.70
23499;DHT22;11926;48.120;11.562;2023-09-19T07:48:35;19.40;91.40
23499;DHT22;11926;48.120;11.562;2023-09-19T07:51:23;19.50;91.40
23499;DHT22;11926;48.120;11.562;2023-09-19T07:54:11;19.60;91.20
23499;DHT22;11926;48.120;11.562;2023-09-19T07:56:58;19.70;91.20
23499;DHT22;11926;48.120;11.562;2023-09-19T07:59:47;19.80;91.00
23499;DHT22;11926;48.120;11.562;2023-09-19T08:02:35;19.80;90.70
23499;DHT22;11926;48.120;11.562;2023-09-19T08:05:24;19.90;90.80
23499;DHT22;11926;48.120;11.562;2023-09-19T08:08:12;20.10;90.70
23499;DHT22;11926;48.120;11.562;2023-09-19T08:11:01;20.30;90.60
23499;DHT22;11926;48.120;11.562;2023-09-19T08:13:48;20.40;90.10
23499;DHT22;11926;48.120;11.562;2023-09-19T08:16:37;20.50;90.00
23499;DHT22;11926;48.120;11.562;2023-09-19T08:19:25;20.60;90.30
23499;DHT22;11926;48.120;11.562;2023-09-19T08:22:14;20.70;89.70
23499;DHT22;11926;48.120;11.562;2023-09-19T08:25:03;20.70;88.50
23499;DHT22;11926;48.120;11.562;2023-09-19T08:27:55;20.80;88.10
23499;DHT22;11926;48.120;11.562;2023-09-19T08:30:45;20.80;87.80
23499;DHT22;11926;48.120;11.562;2023-09-19T08:33:35;20.70;87.50
23499;DHT22;11926;48.120;11.562;2023-09-19T08:36:25;20.60;87.50
23499;DHT22;11926;48.120;11.562;2023-09-19T08:39:12;20.60;87.30
23499;DHT22;11926;48.120;11.562;2023-09-19T08:42:00;20.60;87.00
23499;DHT22;11926;48.120;11.562;2023-09-19T08:44:48;20.60;87.50
23499;DHT22;11926;48.120;11.562;2023-09-19T08:47:43;20.50;87.30
23499;DHT22;11926;48.120;11.562;2023-09-19T08:50:42;20.60;87.70
23499;DHT22;11926;48.120;11.562;2023-09-19T08:53:39;20.70;87.80
23499;DHT22;11926;48.120;11.562;2023-09-19T08:56:29;20.80;86.80
23499;DHT22;11926;48.120;11.562;2023-09-19T08:59:21;20.90;86.80
23499;DHT22;11926;48.120;11.562;2023-09-19T09:02:12;21.00;85.10
23499;DHT22;11926;48.120;11.562;2023-09-19T09:04:59;21.10;84.30
23499;DHT22;11926;48.120;11.562;2023-09-19T09:07:49;21.10;84.20
23499;DHT22;11926;48.120;11.562;2023-09-19T09:10:38;21.30;83.50
23499;DHT22;11926;48.120;11.562;2023-09-19T09:13:26;21.30;84.40
23499;DHT22;11926;48.120;11.562;2023-09-19T09:16:14;21.40;83.40
23499;DHT22;11926;48.120;11.562;2023-09-19T09:19:05;21.40;81.80
23499;DHT22;11926;48.120;11.562;2023-09-19T09:21:53;21.30;81.70
23499;DHT22;11926;48.120;11.562;2023-09-19T09:24:53;21.20;80.90
23499;DHT22;11926;48.120;11.562;2023-09-19T09:27:43;21.20;82.30
23499;DHT22;11926;48.120;11.562;2023-09-19T09:30:36;21.20;82.00
23499;DHT22;11926;48.120;11.562;2023-09-19T09:33:25;21.30;81.60
23499;DHT22;11926;48.120;11.562;2023-09-19T09:36:12;21.50;80.40
23499;DHT22;11926;48.120;11.562;2023-09-19T09:39:01;21.60;80.10
23499;DHT22;11926;48.120;11.562;2023-09-19T09:42:04;21.90;79.40
23499;DHT22;11926;48.120;11.562;2023-09-19T09:45:13;22.10;77.70
23499;DHT22;11926;48.120;11.562;2023-09-19T09:48:01;22.20;76.50
23499;DHT22;11926;48.120;11.562;2023-09-19T09:50:50;22.20;76.40
23499;DHT22;11926;48.120;11.562;2023-09-19T09:53:42;22.50;76.70
23499;DHT22;11926;48.120;11.562;2023-09-19T09:56:32;23.10;76.10
23499;DHT22;11926;48.120;11.562;2023-09-19T09:59:22;23.70;73.40
23499;DHT22;11926;48.120;11.562;2023-09-19T10:02:10;24.50;70.80
23499;DHT22;11926;48.120;11.562;2023-09-19T10:05:00;25.30;69.20
23499;DHT22;11926;48.120;11.562;2023-09-19T10:08:11;26.00;65.90
23499;DHT22;11926;48.120;11.562;2023-09-19T10:11:15;26.80;63.40
23499;DHT22;11926;48.120;11.562;2023-09-19T10:14:04;27.20;60.30
23499;DHT22;11926;48.120;11.562;2023-09-19T10:16:58;27.00;59.70
23499;DHT22;11926;48.120;11.562;2023-09-19T10:19:55;27.00;59.50
23499;DHT22;11926;48.120;11.562;2023-09-19T10:22:46;27.30;59.20
23499;DHT22;11926;48.120;11.562;2023-09-19T10:25:43;28.00;58.20
23499;DHT22;11926;48.120;11.562;2023-09-19T10:28:35;28.80;56.70
23499;DHT22;11926;48.120;11.562;2023-09-19T10:31:23;29.50;53.70
23499;DHT22;11926;48.120;11.562;2023-09-19T10:34:14;29.20;53.10
23499;DHT22;11926;48.120;11.562;2023-09-19T10:37:03;28.50;53.10
23499;DHT22;11926;48.120;11.562;2023-09-19T10:39:53;27.80;55.40
23499;DHT22;11926;48.120;11.562;2023-09-19T10:42:46;27.30;55.50
23499;DHT22;11926;48.120;11.562;2023-09-19T10:45:35;26.70;56.30
23499;DHT22;11926;48.120;11.562;2023-09-19T10:48:25;26.00;57.20
23499;DHT22;11926;48.120;11.562;2023-09-19T10:51:18;25.40;58.70
23499;DHT22;11926;48.120;11.562;2023-09-19T10:54:12;24.90;59.90
23499;DHT22;11926;48.120;11.562;2023-09-19T10:57:02;24.50;61.80
23499;DHT22;11926;48.120;11.562;2023-09-19T11:00:03;24.20;62.70
23499;DHT22;11926;48.120;11.562;2023-09-19T11:03:17;23.90;64.40
23499;DHT22;11926;48.120;11.562;2023-09-19T11:06:12;23.80;66.20
23499;DHT22;11926;48.120;11.562;2023-09-19T11:09:05;23.70;65.20
23499;DHT22;11926;48.120;11.562;2023-09-19T11:12:08;23.50;65.60
23499;DHT22;11926;48.120;11.562;2023-09-19T11:14:55;23.30;67.10
23499;DHT22;11926;48.120;11.562;2023-09-19T11:17:43;23.40;67.50
23499;DHT22;11926;48.120;11.562;2023-09-19T11:20:34;23.40;66.30
23499;DHT22;11926;48.120;11.562;2023-09-19T11:23:29;23.30;65.80
23499;DHT22;11926;48.120;11.562;2023-09-19T11:26:40;23.10;66.20
23499;DHT22;11926;48.120;11.562;2023-09-19T11:29:34;23.00;65.70
23499;DHT22;11926;48.120;11.562;2023-09-19T11:36:00;23.10;64.80
23499;DHT22;11926;48.120;11.562;2023-09-19T11:39:01;23.20;64.20
23499;DHT22;11926;48.120;11.562;2023-09-19T11:41:56;23.30;63.50
23499;DHT22;11926;48.120;11.562;2023-09-19T11:44:43;23.30;63.90
23499;DHT22;11926;48.120;11.562;2023-09-19T11:47:32;23.50;64.40
23499;DHT22;11926;48.120;11.562;2023-09-19T11:50:21;23.90;63.40
23499;DHT22;11926;48.120;11.562;2023-09-19T11:53:11;24.10;62.10
23499;DHT22;11926;48.120;11.562;2023-09-19T11:55:59;24.40;60.80
23499;DHT22;11926;48.120;11.562;2023-09-19T11:58:51;24.60;60.20
23499;DHT22;11926;48.120;11.562;2023-09-19T12:01:42;24.60;59.30
23499;DHT22;11926;48.120;11.562;2023-09-19T12:04:35;24.60;59.90
23499;DHT22;11926;48.120;11.562;2023-09-19T12:07:24;24.80;60.00
23499;DHT22;11926;48.120;11.562;2023-09-19T12:10:12;24.90;59.10
23499;DHT22;11926;48.120;11.562;2023-09-19T12:13:01;24.90;59.50
23499;DHT22;11926;48.120;11.562;2023-09-19T12:15:53;24.90;59.80
23499;DHT22;11926;48.120;11.562;2023-09-19T12:18:40;24.90;61.10
23499;DHT22;11926;48.120;11.562;2023-09-19T12:21:30;25.00;60.60
23499;DHT22;11926;48.120;11.562;2023-09-19T12:24:18;25.00;61.00
23499;DHT22;11926;48.120;11.562;2023-09-19T12:27:06;25.00;60.50
23499;DHT22;11926;48.120;11.562;2023-09-19T12:29:55;25.00;60.90
23499;DHT22;11926;48.120;11.562;2023-09-19T12:32:56;25.20;60.20
23499;DHT22;11926;48.120;11.562;2023-09-19T12:35:45;25.50;60.40
23499;DHT22;11926;48.120;11.562;2023-09-19T12:38:32;25.80;59.50
23499;DHT22;11926;48.120;11.562;2023-09-19T12:41:21;25.90;58.40
23499;DHT22;11926;48.120;11.562;2023-09-19T12:44:10;26.10;57.80
23499;DHT22;11926;48.120;11.562;2023-09-19T12:46:58;26.30;57.00
23499;DHT22;11926;48.120;11.562;2023-09-19T12:50:08;26.40;56.60
23499;DHT22;11926;48.120;11.562;2023-09-19T12:53:00;26.60;56.70
23499;DHT22;11926;48.120;11.562;2023-09-19T12:55:58;26.60;56.90
23499;DHT22;11926;48.120;11.562;2023-09-19T12:58:50;26.60;57.10
23499;DHT22;11926;48.120;11.562;2023-09-19T13:01:41;26.50;56.80
23499;DHT22;11926;48.120;11.562;2023-09-19T13:04:32;26.30;57.10
23499;DHT22;11926;48.120;11.562;2023-09-19T13:07:45;26.20;57.30
23499;DHT22;11926;48.120;11.562;2023-09-19T13:10:32;26.30;57.10
23499;DHT22;11926;48.120;11.562;2023-09-19T13:13:24;26.20;56.40
23499;DHT22;11926;48.120;11.562;2023-09-19T13:16:14;26.10;56.70
23499;DHT22;11926;48.120;11.562;2023-09-19T13:19:08;26.10;57.30
23499;DHT22;11926;48.120;11.562;2023-09-19T13:21:56;26.20;57.60
23499;DHT22;11926;48.120;11.562;2023-09-19T13:24:44;26.20;58.30
23499;DHT22;11926;48.120;11.562;2023-09-19T13:27:36;26.30;59.00
23499;DHT22;11926;48.120;11.562;2023-09-19T13:30:27;26.50;59.00
23499;DHT22;11926;48.120;11.562;2023-09-19T13:33:17;26.60;58.90
23499;DHT22;11926;48.120;11.562;2023-09-19T13:36:07;26.50;58.80
23499;DHT22;11926;48.120;11.562;2023-09-19T13:38:55;26.50;58.50
23499;DHT22;11926;48.120;11.562;2023-09-19T13:41:46;26.40;59.00
23499;DHT22;11926;48.120;11.562;2023-09-19T13:44:34;26.30;58.40
23499;DHT22;11926;48.120;11.562;2023-09-19T13:47:22;26.30;59.70
23499;DHT22;11926;48.120;11.562;2023-09-19T13:50:12;26.40;57.60
23499;DHT22;11926;48.120;11.562;2023-09-19T13:53:00;26.40;57.20
23499;DHT22;11926;48.120;11.562;2023-09-19T13:55:48;26.40;57.00
23499;DHT22;11926;48.120;11.562;2023-09-19T13:58:37;26.40;55.80
23499;DHT22;11926;48.120;11.562;2023-09-19T14:01:25;26.40;56.50
23499;DHT22;11926;48.120;11.562;2023-09-19T14:04:13;26.30;54.60
23499;DHT22;11926;48.120;11.562;2023-09-19T14:07:01;26.20;55.40
23499;DHT22;11926;48.120;11.562;2023-09-19T14:09:49;26.10;55.00
23499;DHT22;11926;48.120;11.562;2023-09-19T14:12:36;26.10;54.90
23499;DHT22;11926;48.120;11.562;2023-09-19T14:15:25;26.10;56.30
23499;DHT22;11926;48.120;11.562;2023-09-19T14:18:16;26.00;56.10
23499;DHT22;11926;48.120;11.562;2023-09-19T14:21:05;25.90;56.40
23499;DHT22;11926;48.120;11.562;2023-09-19T14:23:52;25.90;56.50
23499;DHT22;11926;48.120;11.562;2023-09-19T14:26:40;25.80;56.40
23499;DHT22;11926;48.120;11.562;2023-09-19T14:29:29;25.70;56.60
23499;DHT22;11926;48.120;11.562;2023-09-19T14:32:18;25.60;56.30
23499;DHT22;11926;48.120;11.562;2023-09-19T14:35:07;25.40;56.30
23499;DHT22;11926;48.120;11.562;2023-09-19T14:37:55;25.30;57.20
23499;DHT22;11926;48.120;11.562;2023-09-19T14:40:42;25.20;56.90
23499;DHT22;11926;48.120;11.562;2023-09-19T14:43:29;25.10;57.00
23499;DHT22;11926;48.120;11.562;2023-09-19T14:46:19;25.00;57.40
23499;DHT22;11926;48.120;11.562;2023-09-19T14:49:07;24.90;57.60
23499;DHT22;11926;48.120;11.562;2023-09-19T14:51:56;24.80;57.60
23499;DHT22;11926;48.120;11.562;2023-09-19T14:54:43;24.80;57.80
23499;DHT22;11926;48.120;11.562;2023-09-19T14:57:31;24.80;59.10
23499;DHT22;11926;48.120;11.562;2023-09-19T15:00:18;24.70;58.60
23499;DHT22;11926;48.120;11.562;2023-09-19T15:03:07;24.70;58.80
23499;DHT22;11926;48.120;11.562;2023-09-19T15:06:00;24.70;58.80
23499;DHT22;11926;48.120;11.562;2023-09-19T15:08:48;24.70;58.60
23499;DHT22;11926;48.120;11.562;2023-09-19T15:11:36;24.60;58.90
23499;DHT22;11926;48.120;11.562;2023-09-19T15:14:24;24.50;58.70
23499;DHT22;11926;48.120;11.562;2023-09-19T15:17:12;24.40;58.90
23499;DHT22;11926;48.120;11.562;2023-09-19T15:20:00;24.40;59.00
23499;DHT22;11926;48.120;11.562;2023-09-19T15:22:50;24.30;59.30
23499;DHT22;11926;48.120;11.562;2023-09-19T15:25:37;24.20;59.10
23499;DHT22;11926;48.120;11.562;2023-09-19T15:28:25;24.10;59.00
23499;DHT22;11926;48.120;11.562;2023-09-19T15:31:14;24.10;59.20
23499;DHT22;11926;48.120;11.562;2023-09-19T15:34:01;24.00;59.40
23499;DHT22;11926;48.120;11.562;2023-09-19T15:36:48;24.00;60.60
23499;DHT22;11926;48.120;11.562;2023-09-19T15:39:38;23.90;60.20
23499;DHT22;11926;48.120;11.562;2023-09-19T15:42:27;23.90;60.20
23499;DHT22;11926;48.120;11.562;2023-09-19T15:45:14;23.70;60.70
23499;DHT22;11926;48.120;11.562;2023-09-19T15:48:05;23.70;60.70
23499;DHT22;11926;48.120;11.562;2023-09-19T15:50:53;23.60;60.30
23499;DHT22;11926;48.120;11.562;2023-09-19T15:53:43;23.60;60.60
23499;DHT22;11926;48.120;11.562;2023-09-19T15:56:33;23.50;60.80
23499;DHT22;11926;48.120;11.562;2023-09-19T15:59:22;23.40;60.60
23499;DHT22;11926;48.120;11.562;2023-09-19T16:02:09;23.40;61.60
23499;DHT22;11926;48.120;11.562;2023-09-19T16:04:57;23.30;60.80
23499;DHT22;11926;48.120;11.562;2023-09-19T16:07:44;23.30;61.30
23499;DHT22;11926;48.120;11.562;2023-09-19T16:10:34;23.20;61.50
23499;DHT22;11926;48.120;11.562;2023-09-19T16:13:24;23.10;61.60
23499;DHT22;11926;48.120;11.562;2023-09-19T16:16:12;23.10;61.80
23499;DHT22;11926;48.120;11.562;2023-09-19T16:19:02;22.90;62.00
23499;DHT22;11926;48.120;11.562;2023-09-19T16:21:51;22.80;62.60
23499;DHT22;11926;48.120;11.562;2023-09-19T16:24:39;22.70;62.90
23499;DHT22;11926;48.120;11.562;2023-09-19T16:27:26;22.70;62.70
23499;DHT22;11926;48.120;11.562;2023-09-19T16:30:15;22.60;62.90
23499;DHT22;11926;48.120;11.562;2023-09-19T16:33:04;22.50;63.00
23499;DHT22;11926;48.120;11.562;2023-09-19T16:35:52;22.40;63.40
23499;DHT22;11926;48.120;11.562;2023-09-19T16:38:41;22.30;63.70
23499;DHT22;11926;48.120;11.562;2023-09-19T16:41:29;22.30;64.30
23499;DHT22;11926;48.120;11.562;2023-09-19T16:44:17;22.20;64.30
23499;DHT22;11926;48.120;11.562;2023-09-19T16:47:08;22.10;64.90
23499;DHT22;11926;48.120;11.562;2023-09-19T16:49:55;22.10;65.00
23499;DHT22;11926;48.120;11.562;2023-09-19T16:52:44;22.00;65.60
23499;DHT22;11926;48.120;11.562;2023-09-19T16:55:33;21.90;66.10
23499;DHT22;11926;48.120;11.562;2023-09-19T16:58:21;21.90;66.90
23499;DHT22;11926;48.120;11.562;2023-09-19T17:01:09;21.80;67.30
23499;DHT22;11926;48.120;11.562;2023-09-19T17:03:58;21.70;67.30
23499;DHT22;11926;48.120;11.562;2023-09-19T17:06:46;21.60;68.40
23499;DHT22;11926;48.120;11.562;2023-09-19T17:09:34;21.50;68.40
23499;DHT22;11926;48.120;11.562;2023-09-19T17:12:21;21.40;68.40
23499;DHT22;11926;48.120;11.562;2023-09-19T17:15:09;21.40;68.70
23499;DHT22;11926;48.120;11.562;2023-09-19T17:17:56;21.30;68.90
23499;DHT22;11926;48.120;11.562;2023-09-19T17:20:45;21.20;70.20
23499;DHT22;11926;48.120;11.562;2023-09-19T17:23:33;21.10;70.00
23499;DHT22;11926;48.120;11.562;2023-09-19T17:26:21;21.00;71.10
23499;DHT22;11926;48.120;11.562;2023-09-19T17:29:10;20.90;71.80
23499;DHT22;11926;48.120;11.562;2023-09-19T17:31:58;20.70;71.90
23499;DHT22;11926;48.120;11.562;2023-09-19T17:34:47;20.60;73.40
23499;DHT22;11926;48.120;11.562;2023-09-19T17:37:36;20.50;74.20
23499;DHT22;11926;48.120;11.562;2023-09-19T17:40:24;20.30;75.10